createdAt,value
2018-08-24T00:01:54.377Z,90.40
2018-08-24T00:06:49.229Z,90.90
2018-08-24T00:11:43.574Z,90.60
2018-08-24T00:16:38.389Z,91.90
2018-08-24T00:21:33.397Z,91.50
2018-08-24T00:42:45.350Z,92.70
2018-08-24T00:47:40.867Z,92.70
2018-08-24T00:52:35.458Z,92.30
2018-08-24T00:57:29.927Z,92.20
2018-08-24T01:02:24.329Z,92.00
2018-08-24T01:07:18.727Z,91.70
2018-08-24T01:12:17.303Z,91.70
2018-08-24T01:17:16.752Z,92.00
2018-08-24T01:22:11.165Z,92.00
2018-08-24T01:27:07.628Z,91.70
2018-08-24T01:32:05.321Z,91.40
2018-08-24T01:36:59.679Z,91.20
2018-08-24T01:41:54.381Z,90.60
2018-08-24T01:46:48.575Z,90.80
2018-08-24T01:51:43.893Z,90.40
2018-08-24T01:56:38.274Z,90.60
2018-08-24T02:01:41.004Z,90.80
2018-08-24T02:06:36.033Z,90.70
2018-08-24T02:11:33.969Z,90.40
2018-08-24T02:16:33.398Z,90.20
2018-08-24T02:21:33.023Z,90.60
2018-08-24T02:26:27.448Z,91.20
2018-08-24T02:31:22.364Z,91.90
2018-08-24T02:36:17.619Z,92.00
2018-08-24T02:41:11.933Z,92.40
2018-08-24T02:46:06.704Z,92.60
2018-08-24T02:51:01.073Z,92.70
2018-08-24T02:55:56.050Z,92.70
2018-08-24T03:00:51.323Z,93.20
2018-08-24T03:05:46.528Z,93.60
2018-08-24T03:10:41.340Z,93.20
2018-08-24T03:15:35.904Z,93.30
2018-08-24T03:20:30.407Z,93.50
2018-08-24T03:25:24.892Z,93.70
2018-08-24T03:30:19.337Z,93.60
2018-08-24T03:35:13.757Z,93.60
2018-08-24T03:40:09.773Z,93.80
2018-08-24T03:45:04.891Z,94.10
2018-08-24T03:49:59.490Z,94.00
2018-08-24T03:54:54.714Z,93.90
2018-08-24T03:59:50.172Z,94.10
2018-08-24T04:04:45.180Z,94.00
2018-08-24T04:09:40.295Z,93.80
2018-08-24T04:14:34.814Z,93.90
2018-08-24T04:19:30.423Z,93.70
2018-08-24T04:24:24.959Z,93.70
2018-08-24T04:29:19.511Z,93.60
2018-08-24T04:34:14.597Z,93.90
2018-08-24T04:39:11.085Z,93.40
2018-08-24T04:44:06.830Z,93.40
2018-08-24T04:49:01.267Z,93.40
2018-08-24T04:53:56.539Z,93.10
2018-08-24T04:58:51.060Z,93.10
2018-08-24T05:03:46.335Z,92.80
2018-08-24T05:08:49.033Z,92.50
2018-08-24T05:13:43.614Z,92.30
2018-08-24T05:18:39.541Z,92.50
2018-08-24T05:23:35.300Z,92.40
2018-08-24T05:28:32.929Z,92.50
2018-08-24T05:33:29.224Z,92.70
2018-08-24T05:38:23.890Z,92.50
2018-08-24T05:43:18.824Z,92.20
2018-08-24T05:48:19.994Z,91.70
2018-08-24T05:53:14.676Z,91.00
2018-08-24T05:58:10.389Z,90.10
2018-08-24T06:03:06.457Z,87.80
2018-08-24T06:08:02.667Z,86.10
2018-08-24T06:12:57.493Z,85.90
2018-08-24T06:17:54.485Z,85.20
2018-08-24T06:22:48.715Z,84.50
2018-08-24T06:27:44.351Z,84.60
2018-08-24T06:32:40.622Z,83.70
2018-08-24T06:37:35.663Z,83.70
2018-08-24T06:42:30.337Z,83.40
2018-08-24T06:47:26.221Z,83.00
2018-08-24T06:52:23.193Z,81.40
2018-08-24T06:57:26.060Z,77.80
2018-08-24T07:02:22.010Z,71.70
2018-08-24T07:07:17.980Z,71.20
2018-08-24T07:12:13.833Z,70.90
2018-08-24T07:17:08.544Z,69.40
2018-08-24T07:22:10.932Z,69.90
2018-08-24T07:27:07.936Z,68.40
2018-08-24T07:32:06.545Z,61.50
2018-08-24T07:37:01.207Z,56.50
2018-08-24T07:41:56.206Z,58.10
2018-08-24T07:46:52.182Z,59.60
2018-08-24T07:51:46.552Z,62.10
2018-08-24T07:56:41.457Z,64.00
2018-08-24T08:01:36.872Z,65.00
2018-08-24T08:06:31.378Z,65.90
2018-08-24T08:11:26.153Z,63.70
2018-08-24T08:16:21.364Z,60.00
2018-08-24T08:21:16.096Z,57.70
2018-08-24T08:26:10.403Z,55.40
2018-08-24T08:31:06.305Z,53.70
2018-08-24T08:36:01.178Z,52.10
2018-08-24T08:40:56.520Z,50.20
2018-08-24T08:45:52.669Z,47.30
2018-08-24T08:50:50.801Z,42.40
2018-08-24T08:55:46.273Z,39.30
2018-08-24T09:00:41.102Z,39.80
2018-08-24T09:05:35.403Z,39.90
2018-08-24T09:10:29.990Z,43.00
2018-08-24T09:15:24.263Z,42.60
2018-08-24T09:20:24.319Z,39.00
2018-08-24T09:25:23.867Z,39.70
2018-08-24T09:30:19.036Z,38.70
2018-08-24T09:35:13.461Z,43.30
2018-08-24T09:40:10.477Z,47.30
2018-08-24T09:45:05.860Z,49.80
2018-08-24T09:50:09.158Z,49.90
2018-08-24T09:55:04.393Z,51.20
2018-08-24T10:00:00.111Z,53.60
2018-08-24T10:04:59.448Z,49.40
2018-08-24T10:09:54.039Z,49.50
2018-08-24T10:14:48.677Z,49.80
2018-08-24T10:19:43.028Z,51.70
2018-08-24T10:24:37.624Z,53.00
2018-08-24T10:29:42.641Z,53.10
2018-08-24T10:34:37.515Z,52.20
2018-08-24T10:39:32.063Z,51.80
2018-08-24T10:44:27.032Z,51.90
2018-08-24T10:49:21.461Z,54.40
2018-08-24T10:54:16.192Z,51.00
2018-08-24T10:59:10.704Z,47.20
2018-08-24T11:04:07.388Z,47.40
2018-08-24T11:09:02.467Z,44.10
2018-08-24T11:13:56.905Z,44.60
2018-08-24T11:18:51.167Z,40.00
2018-08-24T11:23:46.260Z,41.90
2018-08-24T11:28:41.687Z,45.50
2018-08-24T11:33:36.306Z,44.30
2018-08-24T11:38:31.303Z,45.80
2018-08-24T11:43:27.394Z,49.20
2018-08-24T11:48:22.488Z,51.70
2018-08-24T11:53:18.652Z,52.30
2018-08-24T11:58:13.013Z,49.60
2018-08-24T12:03:07.818Z,48.70
2018-08-24T12:08:05.184Z,48.70
2018-08-24T12:12:59.692Z,49.20
2018-08-24T12:17:54.513Z,50.30
2018-08-24T12:22:49.464Z,51.60
2018-08-24T12:27:43.905Z,52.30
2018-08-24T12:33:01.129Z,51.50
2018-08-24T12:38:04.996Z,49.80
2018-08-24T12:42:59.865Z,48.40
2018-08-24T12:47:54.929Z,48.50
2018-08-24T12:52:49.354Z,48.50
2018-08-24T12:57:43.872Z,48.20
2018-08-24T13:02:38.341Z,47.30
2018-08-24T13:07:32.876Z,46.90
2018-08-24T13:12:27.564Z,45.90
2018-08-24T13:17:22.018Z,47.10
2018-08-24T13:22:17.208Z,48.50
2018-08-24T13:27:11.514Z,49.60
2018-08-24T13:32:07.179Z,50.00
2018-08-24T13:37:01.485Z,50.40
2018-08-24T13:41:56.407Z,48.90
2018-08-24T13:46:50.840Z,48.70
2018-08-24T13:51:45.400Z,49.70
2018-08-24T13:56:39.976Z,50.10
2018-08-24T14:01:42.627Z,49.10
2018-08-24T14:06:37.295Z,48.50
2018-08-24T14:11:31.752Z,48.40
2018-08-24T14:16:26.084Z,48.40
2018-08-24T14:21:20.314Z,48.30
2018-08-24T14:26:15.404Z,48.10
2018-08-24T14:31:10.034Z,48.30
2018-08-24T14:36:05.262Z,49.00
2018-08-24T14:41:00.006Z,50.40
2018-08-24T14:45:55.224Z,50.70
2018-08-24T14:50:49.579Z,51.00
2018-08-24T14:55:44.131Z,51.60
2018-08-24T15:00:38.806Z,51.80
2018-08-24T15:05:33.393Z,52.50
2018-08-24T15:10:27.977Z,52.80
2018-08-24T15:15:22.349Z,51.90
2018-08-24T15:20:16.836Z,51.20
2018-08-24T15:25:11.089Z,50.10
2018-08-24T15:30:06.069Z,49.70
2018-08-24T15:35:00.596Z,50.50
2018-08-24T15:39:55.005Z,51.00
2018-08-24T15:44:49.504Z,51.60
2018-08-24T15:49:44.147Z,52.70
2018-08-24T15:54:38.842Z,53.60
2018-08-24T15:59:33.136Z,54.10
2018-08-24T16:04:34.603Z,54.90
2018-08-24T16:09:29.248Z,54.90
2018-08-24T16:14:23.733Z,54.90
2018-08-24T16:19:18.656Z,54.50
2018-08-24T16:24:15.006Z,55.10
2018-08-24T16:29:10.147Z,55.60
2018-08-24T16:34:06.498Z,54.80
2018-08-24T16:39:01.775Z,54.10
2018-08-24T16:43:56.287Z,54.90
2018-08-24T16:48:58.530Z,55.00
2018-08-24T16:53:53.871Z,56.30
2018-08-24T16:58:48.435Z,58.10
2018-08-24T17:03:42.893Z,59.20
2018-08-24T17:08:37.187Z,64.00
2018-08-24T17:13:38.596Z,64.60
2018-08-24T17:18:33.000Z,64.70
2018-08-24T17:23:27.509Z,65.20
2018-08-24T17:28:22.097Z,65.40
2018-08-24T17:33:17.449Z,66.60
2018-08-24T17:38:19.855Z,67.20
2018-08-24T17:43:21.749Z,67.80
2018-08-24T17:48:16.411Z,68.50
2018-08-24T17:53:10.885Z,70.00
2018-08-24T17:58:21.251Z,70.40
2018-08-24T18:03:39.304Z,71.10
2018-08-24T18:08:33.950Z,71.10
2018-08-24T18:13:28.512Z,71.10
2018-08-24T18:18:23.416Z,71.70
2018-08-24T18:23:18.753Z,71.70
2018-08-24T18:28:13.766Z,71.30
2018-08-24T18:33:08.371Z,71.30
2018-08-24T18:38:02.903Z,71.20
2018-08-24T18:42:58.304Z,70.60
2018-08-24T18:47:52.940Z,69.70
2018-08-24T18:52:47.772Z,70.20
2018-08-24T18:57:42.769Z,69.90
2018-08-24T19:02:37.161Z,69.20
2018-08-24T19:07:31.590Z,69.20
2018-08-24T19:12:40.557Z,69.20
2018-08-24T19:17:40.232Z,70.00
2018-08-24T19:22:34.600Z,70.30
2018-08-24T19:27:42.087Z,71.50
2018-08-24T19:32:37.180Z,71.80
2018-08-24T19:37:31.667Z,72.80
2018-08-24T19:42:26.865Z,72.90
2018-08-24T19:47:26.167Z,74.00
2018-08-24T19:52:20.502Z,74.90
2018-08-24T19:57:20.174Z,75.10
2018-08-24T20:02:14.361Z,76.10
2018-08-24T20:07:14.205Z,76.20
2018-08-24T20:12:08.668Z,76.80
2018-08-24T20:17:08.435Z,77.10
2018-08-24T20:22:19.061Z,77.20
2018-08-24T20:27:29.865Z,77.70
2018-08-24T20:32:24.253Z,77.80
2018-08-24T20:37:26.544Z,78.80
2018-08-24T20:42:20.977Z,78.90
2018-08-24T20:47:15.277Z,79.20
2018-08-24T20:52:09.881Z,79.10
2018-08-24T20:57:05.929Z,79.40
2018-08-24T21:02:00.468Z,79.60
2018-08-24T21:06:54.995Z,80.10
2018-08-24T21:11:50.331Z,79.80
2018-08-24T21:16:44.751Z,80.40
2018-08-24T21:21:39.217Z,80.20
2018-08-24T21:26:33.462Z,80.30
2018-08-24T21:31:28.437Z,81.10
2018-08-24T21:36:22.778Z,81.20
2018-08-24T21:41:24.462Z,81.70
2018-08-24T21:46:26.323Z,82.20
2018-08-24T21:51:20.714Z,82.50
2018-08-24T21:56:15.024Z,82.20
2018-08-24T22:01:09.834Z,82.70
2018-08-24T22:06:06.757Z,81.70
2018-08-24T22:11:01.934Z,82.00
2018-08-24T22:15:56.445Z,81.60
2018-08-24T22:20:50.968Z,81.50
2018-08-24T22:25:45.475Z,82.40
2018-08-24T22:30:40.613Z,83.00
2018-08-24T22:35:35.117Z,82.90
2018-08-24T22:40:30.020Z,82.60
2018-08-24T22:45:24.651Z,82.80
2018-08-24T22:50:19.262Z,83.10
2018-08-24T22:55:13.598Z,83.00
2018-08-24T23:00:08.098Z,83.40
2018-08-24T23:05:03.248Z,83.90
2018-08-24T23:09:58.793Z,83.80
2018-08-24T23:14:53.076Z,84.60
2018-08-24T23:19:47.614Z,84.40
2018-08-24T23:24:41.933Z,84.70
2018-08-24T23:29:36.715Z,84.40
2018-08-24T23:34:31.165Z,84.50
2018-08-24T23:39:25.671Z,87.30
2018-08-24T23:44:35.405Z,87.00
2018-08-24T23:49:30.009Z,88.40
2018-08-24T23:54:24.634Z,88.20
2018-08-24T23:59:19.073Z,87.00
